Time;durP1;ratioP1;P1;durP2;ratioP2;P2;SDS_P1;SDS_P2;PMS_P1;PMS_P2;Temp;Humidity;BMP_temperature;BMP_pressure;BME280_temperature;BME280_humidity;BME280_pressure;Samples;Min_cycle;Max_cycle;Signal;HPM_P1;HPM_P2
2023/12/04 00:02:24;;;;;;;13.18;5.75;;;14.60;64.20;;;;;;4983976;28;20778;-47
2023/12/04 00:04:50;;;;;;;14.70;7.30;;;14.60;64.20;;;;;;4984945;28;20073;-49
2023/12/04 00:07:15;;;;;;;12.73;6.18;;;14.60;64.20;;;;;;4983213;28;20719;-54
2023/12/04 00:09:41;;;;;;;11.50;6.47;;;14.60;64.20;;;;;;4985693;28;20031;-48
2023/12/04 00:12:07;;;;;;;10.32;5.90;;;14.60;64.20;;;;;;4983635;28;20031;-47
2023/12/04 00:14:32;;;;;;;10.00;5.38;;;14.60;64.20;;;;;;4985747;28;20034;-47
2023/12/04 00:16:58;;;;;;;14.07;5.25;;;14.60;64.20;;;;;;4984948;28;20442;-52
2023/12/04 00:19:23;;;;;;;11.68;5.65;;;14.60;64.20;;;;;;4985572;28;20034;-51
2023/12/04 00:21:49;;;;;;;14.02;5.43;;;14.60;64.10;;;;;;4985743;28;20113;-48
2023/12/04 00:24:14;;;;;;;12.52;5.40;;;14.60;64.80;;;;;;4985504;28;20034;-50
2023/12/04 00:26:40;;;;;;;9.93;5.05;;;14.60;64.20;;;;;;4985703;28;20030;-53
2023/12/04 00:29:06;;;;;;;10.35;4.95;;;14.60;64.10;;;;;;4998475;28;20045;-52
2023/12/04 00:31:31;;;;;;;11.55;5.72;;;14.60;64.10;;;;;;4986211;28;20034;-48
2023/12/04 00:33:57;;;;;;;11.65;5.25;;;14.60;64.10;;;;;;4985926;28;20116;-56
2023/12/04 00:36:22;;;;;;;9.30;5.43;;;14.60;64.10;;;;;;4988740;28;20045;-55
2023/12/04 00:38:48;;;;;;;9.13;4.75;;;14.50;64.00;;;;;;4985890;28;20034;-48
2023/12/04 00:41:13;;;;;;;7.50;4.38;;;14.60;64.10;;;;;;4989890;28;20364;-50
2023/12/04 00:43:39;;;;;;;9.35;4.75;;;14.60;64.10;;;;;;4980743;28;20030;-50
2023/12/04 00:46:05;;;;;;;7.80;4.63;;;14.60;64.10;;;;;;4983273;28;20038;-52
2023/12/04 00:48:30;;;;;;;6.90;4.32;;;14.60;64.10;;;;;;4983645;28;21029;-51
2023/12/04 00:50:58;;;;;;;7.18;3.88;;;14.60;64.10;;;;;;4985595;28;20026;-52
2023/12/04 00:53:23;;;;;;;7.55;5.03;;;14.50;64.10;;;;;;4980830;28;20038;-50
2023/12/04 00:55:49;;;;;;;8.90;4.15;;;14.60;64.00;;;;;;4985415;28;20491;-55
2023/12/04 00:58:14;;;;;;;6.13;3.75;;;14.50;64.00;;;;;;4982500;28;20033;-48
2023/12/04 01:00:40;;;;;;;6.28;4.32;;;14.50;64.00;;;;;;4984581;28;20104;-51
2023/12/04 01:03:06;;;;;;;7.15;4.13;;;14.50;63.90;;;;;;4982683;28;20038;-54
2023/12/04 01:05:31;;;;;;;6.63;3.63;;;14.50;64.00;;;;;;4983712;28;20034;-52
2023/12/04 01:07:56;;;;;;;7.03;4.32;;;14.50;63.90;;;;;;4983045;28;20035;-54
2023/12/04 01:10:22;;;;;;;7.95;3.53;;;14.50;64.00;;;;;;4981933;28;20030;-50
2023/12/04 01:12:48;;;;;;;5.82;3.65;;;14.50;63.90;;;;;;4983705;28;20034;-51
2023/12/04 01:15:13;;;;;;;5.38;3.25;;;14.50;63.90;;;;;;4985136;28;20145;-51
2023/12/04 01:17:39;;;;;;;6.32;3.30;;;14.50;63.90;;;;;;4985934;28;20727;-48
2023/12/04 01:20:05;;;;;;;5.25;3.15;;;14.50;63.90;;;;;;4996885;28;20039;-49
2023/12/04 01:22:31;;;;;;;5.70;2.90;;;14.50;63.90;;;;;;4983935;28;20042;-51
2023/12/04 01:24:57;;;;;;;6.55;3.33;;;14.50;63.90;;;;;;4984628;28;20576;-52
2023/12/04 01:27:22;;;;;;;5.40;3.75;;;14.50;63.90;;;;;;4983981;28;20038;-50
2023/12/04 01:29:48;;;;;;;5.38;3.30;;;14.50;63.90;;;;;;4985720;28;20110;-51
2023/12/04 01:32:13;;;;;;;6.05;3.00;;;14.50;63.90;;;;;;4985090;28;20448;-48
2023/12/04 01:34:39;;;;;;;4.43;2.85;;;14.50;63.80;;;;;;4984455;28;20033;-50
2023/12/04 01:37:04;;;;;;;5.63;3.00;;;14.50;63.80;;;;;;4990699;28;20520;-53
2023/12/04 01:39:30;;;;;;;5.53;2.90;;;14.50;63.80;;;;;;4983955;28;20435;-52
2023/12/04 01:41:55;;;;;;;4.25;2.90;;;14.50;63.80;;;;;;4989809;28;20730;-48
2023/12/04 01:44:22;;;;;;;4.50;2.75;;;14.50;63.80;;;;;;4983302;28;20113;-48
2023/12/04 01:46:48;;;;;;;5.40;3.20;;;14.50;63.80;;;;;;4988234;28;20480;-48
2023/12/04 01:49:13;;;;;;;4.82;2.53;;;14.50;63.80;;;;;;4983338;28;20137;-48
2023/12/04 01:51:39;;;;;;;3.70;2.58;;;14.50;63.80;;;;;;4987585;28;20030;-50
2023/12/04 01:54:06;;;;;;;4.35;2.42;;;14.50;63.80;;;;;;4984631;28;20030;-51
2023/12/04 01:56:33;;;;;;;6.82;2.78;;;14.50;63.80;;;;;;4987940;28;20074;-48
2023/12/04 01:58:59;;;;;;;3.05;2.40;;;14.50;63.80;;;;;;4978859;28;20046;-49
2023/12/04 02:01:26;;;;;;;3.13;1.95;;;14.50;63.80;;;;;;4985645;28;20034;-54
2023/12/04 02:03:52;;;;;;;2.72;2.05;;;14.50;63.80;;;;;;4982514;28;20067;-48
2023/12/04 02:06:20;;;;;;;3.47;2.65;;;14.50;63.80;;;;;;4982683;28;20031;-53
2023/12/04 02:08:46;;;;;;;4.28;2.38;;;14.50;63.80;;;;;;4981888;28;20468;-52
2023/12/04 02:11:12;;;;;;;3.45;1.90;;;14.40;63.70;;;;;;4982430;28;20053;-54
2023/12/04 02:13:38;;;;;;;3.65;2.13;;;14.50;63.80;;;;;;4981958;28;20061;-48
2023/12/04 02:16:06;;;;;;;3.08;2.42;;;14.50;63.70;;;;;;4979567;28;20313;-54
2023/12/04 02:18:32;;;;;;;3.40;1.85;;;14.50;63.70;;;;;;4981696;28;20037;-54
2023/12/04 02:20:59;;;;;;;4.07;2.25;;;14.40;63.70;;;;;;4982018;28;20050;-51
2023/12/04 02:23:25;;;;;;;3.78;2.10;;;14.50;63.70;;;;;;4982334;28;20060;-51
2023/12/04 02:25:53;;;;;;;3.25;1.85;;;14.40;63.60;;;;;;4982411;28;20042;-51
2023/12/04 02:28:20;;;;;;;3.15;1.95;;;14.50;63.70;;;;;;4982106;28;20038;-49
2023/12/04 02:30:47;;;;;;;2.88;2.00;;;14.50;63.70;;;;;;4982760;28;20045;-48
2023/12/04 02:33:14;;;;;;;3.08;2.00;;;14.40;63.60;;;;;;4982169;28;20026;-52
2023/12/04 02:35:41;;;;;;;2.47;1.80;;;14.40;63.60;;;;;;4996351;28;20097;-50
2023/12/04 02:38:07;;;;;;;2.17;1.75;;;14.40;63.60;;;;;;4982935;28;20031;-52
2023/12/04 02:40:33;;;;;;;1.90;1.52;;;14.40;63.60;;;;;;4981824;28;20436;-55
2023/12/04 02:42:59;;;;;;;2.13;1.63;;;14.40;63.60;;;;;;4988105;28;20703;-51
2023/12/04 02:45:24;;;;;;;3.45;2.00;;;14.40;63.60;;;;;;4980863;28;20026;-48
2023/12/04 02:47:50;;;;;;;3.40;1.80;;;14.40;63.60;;;;;;4988103;28;20041;-53
2023/12/04 02:50:15;;;;;;;1.92;1.48;;;14.40;63.50;;;;;;4982641;28;20129;-52
2023/12/04 02:52:41;;;;;;;3.33;1.88;;;14.40;63.60;;;;;;4981878;28;20436;-49
2023/12/04 02:55:07;;;;;;;2.50;1.58;;;14.40;63.50;;;;;;5000983;28;20087;-51
2023/12/04 02:57:32;;;;;;;2.53;1.83;;;14.40;63.50;;;;;;5001735;28;20030;-50
2023/12/04 02:59:58;;;;;;;1.92;1.60;;;14.40;63.50;;;;;;4991660;28;20454;-48
2023/12/04 03:02:23;;;;;;;3.00;1.60;;;14.40;63.40;;;;;;5000128;28;20053;-54
2023/12/04 03:04:49;;;;;;;1.83;1.42;;;14.40;63.40;;;;;;4998439;28;20034;-50
2023/12/04 03:07:14;;;;;;;2.50;1.58;;;14.40;63.40;;;;;;4996579;28;20313;-49
2023/12/04 03:09:40;;;;;;;1.52;1.30;;;14.40;63.40;;;;;;4998780;28;20045;-51
2023/12/04 03:12:06;;;;;;;2.08;1.65;;;14.40;63.40;;;;;;4998112;28;20079;-51
2023/12/04 03:14:31;;;;;;;1.95;1.42;;;14.40;63.40;;;;;;4998329;28;20207;-52
2023/12/04 03:16:57;;;;;;;1.70;1.52;;;14.40;63.40;;;;;;4996553;28;20049;-51
2023/12/04 03:19:22;;;;;;;2.35;1.42;;;14.40;63.30;;;;;;4999669;28;20670;-52
2023/12/04 03:21:48;;;;;;;1.92;1.70;;;14.40;63.30;;;;;;4999614;28;20026;-55
2023/12/04 03:24:13;;;;;;;1.23;1.13;;;14.40;63.30;;;;;;4998983;28;20022;-50
2023/12/04 03:26:40;;;;;;;1.95;1.20;;;14.40;63.30;;;;;;4997991;28;20432;-51
2023/12/04 03:29:05;;;;;;;1.40;1.20;;;14.30;63.20;;;;;;5003135;28;20045;-52
2023/12/04 03:31:31;;;;;;;2.17;1.40;;;14.40;63.20;;;;;;4997922;28;20038;-51
2023/12/04 03:33:56;;;;;;;2.95;1.50;;;14.40;63.20;;;;;;5007093;28;20210;-53
2023/12/04 03:36:22;;;;;;;2.00;1.35;;;14.40;63.20;;;;;;5004946;28;20449;-52
2023/12/04 03:38:47;;;;;;;2.55;1.27;;;14.30;63.20;;;;;;5006641;28;20026;-53
2023/12/04 03:41:14;;;;;;;2.25;1.58;;;14.30;63.20;;;;;;5006023;28;20113;-51
2023/12/04 03:43:40;;;;;;;2.33;1.48;;;14.40;63.20;;;;;;5005744;28;20038;-51
2023/12/04 03:46:06;;;;;;;1.17;1.05;;;14.30;63.20;;;;;;5002788;28;20041;-54
2023/12/04 03:48:31;;;;;;;2.33;1.50;;;14.30;63.20;;;;;;5010930;28;20455;-51
2023/12/04 03:50:57;;;;;;;1.10;1.00;;;14.30;63.20;;;;;;5004876;28;20038;-52
2023/12/04 03:53:23;;;;;;;2.30;1.48;;;14.30;63.20;;;;;;4999735;28;20064;-55
2023/12/04 03:55:48;;;;;;;1.73;1.30;;;14.30;63.20;;;;;;5004824;28;20034;-53
2023/12/04 03:58:13;;;;;;;1.50;1.00;;;14.30;63.20;;;;;;5008957;28;20053;-47
2023/12/04 04:00:43;;;;;;;1.30;1.10;;;14.30;63.20;;;;;;5005056;28;20407;-50
2023/12/04 04:03:09;;;;;;;1.65;1.33;;;14.30;63.20;;;;;;5005812;28;20028;-54
2023/12/04 04:05:34;;;;;;;1.25;1.15;;;14.30;63.10;;;;;;5004086;28;20394;-54
2023/12/04 04:08:00;;;;;;;1.63;1.05;;;14.30;63.10;;;;;;5007711;28;20030;-48
2023/12/04 04:10:26;;;;;;;1.95;1.42;;;14.30;63.10;;;;;;4983499;28;20554;-54
2023/12/04 04:12:51;;;;;;;1.60;1.08;;;14.30;63.10;;;;;;4985771;28;20161;-57
2023/12/04 04:15:17;;;;;;;1.15;1.05;;;14.30;63.10;;;;;;4985947;28;20050;-54
2023/12/04 04:17:42;;;;;;;1.27;1.10;;;14.30;63.10;;;;;;4985842;28;20392;-47
2023/12/04 04:20:08;;;;;;;1.50;1.13;;;14.30;63.10;;;;;;4986449;28;20492;-49
2023/12/04 04:22:37;;;;;;;1.55;1.00;;;14.30;63.10;;;;;;4967567;28;20030;-51
2023/12/04 04:25:05;;;;;;;2.33;1.08;;;14.30;63.10;;;;;;4986032;28;20097;-59
2023/12/04 04:27:31;;;;;;;1.85;1.30;;;14.20;63.10;;;;;;4984801;28;20541;-54
2023/12/04 04:29:56;;;;;;;1.13;0.80;;;14.30;63.20;;;;;;4980631;28;20050;-47
2023/12/04 04:32:22;;;;;;;1.15;1.00;;;14.30;63.20;;;;;;4983716;28;20102;-48
2023/12/04 04:34:47;;;;;;;1.20;1.10;;;14.20;63.10;;;;;;4984748;28;20038;-54
2023/12/04 04:37:13;;;;;;;0.85;0.85;;;14.30;63.20;;;;;;4982670;28;21021;-51
2023/12/04 04:39:39;;;;;;;1.55;0.98;;;14.20;63.10;;;;;;4983485;28;20027;-47
2023/12/04 04:42:05;;;;;;;1.58;1.02;;;14.30;63.20;;;;;;4983477;28;20241;-51
2023/12/04 04:44:31;;;;;;;1.63;1.00;;;14.20;63.10;;;;;;4982824;28;20113;-54
2023/12/04 04:46:56;;;;;;;1.20;0.98;;;14.30;63.20;;;;;;4984059;28;20030;-48
2023/12/04 04:49:22;;;;;;;1.10;1.00;;;14.30;63.20;;;;;;4966234;28;20049;-53
2023/12/04 04:51:47;;;;;;;0.98;0.75;;;14.30;63.20;;;;;;4984045;28;20041;-51
2023/12/04 04:54:13;;;;;;;1.35;1.25;;;14.20;63.10;;;;;;4983387;28;20508;-47
2023/12/04 04:56:38;;;;;;;1.27;1.10;;;14.20;63.20;;;;;;4981558;28;20038;-52
2023/12/04 04:59:04;;;;;;;0.95;0.82;;;14.20;63.10;;;;;;4983484;28;20395;-49
2023/12/04 05:01:29;;;;;;;0.93;0.82;;;14.20;63.10;;;;;;4983509;28;20054;-54
2023/12/04 05:03:54;;;;;;;1.50;0.75;;;14.20;63.20;;;;;;4985222;28;20030;-52
2023/12/04 05:06:22;;;;;;;1.65;1.13;;;14.20;63.10;;;;;;4984166;28;20035;-54
2023/12/04 05:08:48;;;;;;;0.60;0.50;;;14.20;63.10;;;;;;4985139;28;20487;-52
2023/12/04 05:11:16;;;;;;;1.77;1.02;;;14.20;63.10;;;;;;4986414;28;20109;-57
2023/12/04 05:13:42;;;;;;;0.98;0.88;;;14.20;63.10;;;;;;4984363;28;20492;-54
2023/12/04 05:16:08;;;;;;;0.70;0.60;;;14.20;63.10;;;;;;4984053;28;20034;-53
2023/12/04 05:18:33;;;;;;;1.17;0.98;;;14.20;63.10;;;;;;4984116;28;20045;-53
2023/12/04 05:20:59;;;;;;;0.82;0.73;;;14.20;63.20;;;;;;4986846;28;20160;-50
2023/12/04 05:23:24;;;;;;;1.10;0.93;;;14.20;63.10;;;;;;4984368;28;20508;-56
2023/12/04 05:25:50;;;;;;;0.90;0.70;;;14.20;63.20;;;;;;4983771;28;20038;-50
2023/12/04 05:28:15;;;;;;;2.50;0.95;;;14.20;63.10;;;;;;4984254;28;20555;-53
2023/12/04 05:30:41;;;;;;;1.05;0.90;;;14.20;63.10;;;;;;4984826;28;20073;-53
2023/12/04 05:33:07;;;;;;;1.08;0.90;;;14.20;63.10;;;;;;4986035;28;20038;-48
2023/12/04 05:35:37;;;;;;;0.70;0.70;;;14.20;63.10;;;;;;4987456;28;20096;-55
2023/12/04 05:38:02;;;;;;;1.00;0.88;;;14.20;63.10;;;;;;4980905;28;20030;-49
2023/12/04 05:40:28;;;;;;;0.70;0.70;;;14.20;63.10;;;;;;4986503;28;20381;-54
2023/12/04 05:42:53;;;;;;;1.13;0.73;;;14.20;63.10;;;;;;4983581;28;20644;-55
2023/12/04 05:45:19;;;;;;;1.10;0.95;;;14.20;63.10;;;;;;4996715;28;20500;-48
2023/12/04 05:47:44;;;;;;;1.05;0.75;;;14.20;63.20;;;;;;4983768;28;20034;-51
2023/12/04 05:50:10;;;;;;;0.90;0.65;;;14.20;63.10;;;;;;4985292;28;20508;-51
2023/12/04 05:52:35;;;;;;;0.98;0.80;;;14.20;63.10;;;;;;4989074;28;20122;-51
2023/12/04 05:55:01;;;;;;;1.00;0.80;;;14.20;63.10;;;;;;4985531;28;20126;-47
2023/12/04 05:57:26;;;;;;;1.38;0.90;;;14.20;63.10;;;;;;4982803;28;20742;-56
2023/12/04 05:59:52;;;;;;;0.60;0.52;;;14.20;63.20;;;;;;4979854;28;20030;-55
2023/12/04 06:02:17;;;;;;;0.93;0.77;;;14.20;63.10;;;;;;4982184;28;20459;-54
2023/12/04 06:04:43;;;;;;;1.00;0.82;;;14.10;63.10;;;;;;4981853;28;20049;-53
2023/12/04 06:07:09;;;;;;;1.73;0.98;;;14.20;63.10;;;;;;4978377;28;20034;-51
2023/12/04 06:09:36;;;;;;;0.75;0.70;;;14.10;63.10;;;;;;4989582;28;20038;-49
2023/12/04 06:12:07;;;;;;;0.82;0.70;;;14.10;63.10;;;;;;4981698;28;20033;-56
2023/12/04 06:14:33;;;;;;;1.20;0.80;;;14.20;63.10;;;;;;4981529;28;20041;-54
2023/12/04 06:16:58;;;;;;;0.88;0.80;;;14.10;63.10;;;;;;4980812;28;20136;-52
2023/12/04 06:19:24;;;;;;;1.55;1.30;;;14.10;63.20;;;;;;4982801;28;20033;-55
2023/12/04 06:21:49;;;;;;;2.53;1.48;;;14.10;63.20;;;;;;4984022;28;20026;-50
2023/12/04 06:24:15;;;;;;;2.30;2.05;;;14.10;63.20;;;;;;4981562;28;20023;-53
2023/12/04 06:26:44;;;;;;;4.65;2.90;;;14.10;63.20;;;;;;4981675;28;20153;-55
2023/12/04 06:29:10;;;;;;;6.22;2.83;;;14.10;63.30;;;;;;4967944;28;20035;-53
2023/12/04 06:31:36;;;;;;;6.15;2.83;;;14.10;63.30;;;;;;4983002;28;20373;-51
2023/12/04 06:34:01;;;;;;;4.82;2.85;;;14.10;63.20;;;;;;4982438;28;20479;-53
2023/12/04 06:36:31;;;;;;;5.53;3.42;;;14.10;63.20;;;;;;4985850;28;20703;-50
2023/12/04 06:38:58;;;;;;;5.03;3.40;;;14.10;63.20;;;;;;4984000;28;20030;-54
2023/12/04 06:41:24;;;;;;;4.65;3.58;;;14.10;63.20;;;;;;4987068;28;20034;-54
2023/12/04 06:43:50;;;;;;;5.35;3.80;;;14.10;63.20;;;;;;4982680;28;20044;-53
2023/12/04 06:46:16;;;;;;;6.15;3.83;;;14.10;63.20;;;;;;4984190;28;20085;-55
2023/12/04 06:48:43;;;;;;;7.88;4.63;;;14.10;63.20;;;;;;4980781;28;20129;-52
2023/12/04 06:51:08;;;;;;;8.35;4.72;;;14.10;63.20;;;;;;4982978;28;20042;-51
2023/12/04 06:53:34;;;;;;;9.27;5.07;;;14.10;63.20;;;;;;4983105;28;20035;-49
2023/12/04 06:55:59;;;;;;;13.70;4.97;;;14.10;63.20;;;;;;4983079;28;21112;-53
2023/12/04 06:58:25;;;;;;;11.57;5.65;;;14.10;63.20;;;;;;4982392;28;20057;-48
2023/12/04 07:00:51;;;;;;;11.50;5.63;;;14.10;63.30;;;;;;4983196;28;20084;-52
2023/12/04 07:03:16;;;;;;;9.95;5.20;;;14.10;63.30;;;;;;4982111;28;20483;-52
2023/12/04 07:05:42;;;;;;;15.13;6.40;;;14.10;63.30;;;;;;4982463;28;20031;-54
2023/12/04 07:08:07;;;;;;;13.52;7.90;;;14.10;63.20;;;;;;4981745;28;20043;-58
2023/12/04 07:10:33;;;;;;;12.70;7.95;;;14.10;63.30;;;;;;4980285;28;20197;-53
2023/12/04 07:12:58;;;;;;;17.77;8.77;;;14.10;63.20;;;;;;4979389;28;20498;-51
2023/12/04 07:15:24;;;;;;;16.13;7.40;;;14.10;63.20;;;;;;4978624;28;20274;-52
2023/12/04 07:17:49;;;;;;;16.38;7.78;;;14.10;63.20;;;;;;4982867;28;20033;-48
2023/12/04 07:20:14;;;;;;;15.10;8.80;;;14.10;63.20;;;;;;4980085;28;20023;-49
2023/12/04 07:22:40;;;;;;;17.95;8.55;;;14.10;63.10;;;;;;4982280;28;20480;-58
2023/12/04 07:25:09;;;;;;;18.77;7.85;;;14.10;63.10;;;;;;4978658;28;20027;-49
2023/12/04 07:27:35;;;;;;;17.40;8.90;;;14.10;63.10;;;;;;4982330;28;20515;-48
2023/12/04 07:30:01;;;;;;;19.33;8.55;;;14.10;63.10;;;;;;4978670;28;20042;-57
2023/12/04 07:32:26;;;;;;;15.90;8.43;;;14.10;63.10;;;;;;4980996;28;20033;-54
2023/12/04 07:34:52;;;;;;;20.15;9.55;;;14.10;63.10;;;;;;4980665;28;20562;-47
2023/12/04 07:37:17;;;;;;;16.75;8.95;;;14.10;63.10;;;;;;4975964;28;20053;-52
2023/12/04 07:39:45;;;;;;;17.77;8.75;;;14.00;63.00;;;;;;4980704;28;20515;-56
2023/12/04 07:42:11;;;;;;;19.85;9.65;;;14.10;63.10;;;;;;4999565;28;20022;-49
2023/12/04 07:44:37;;;;;;;16.52;8.07;;;14.10;63.10;;;;;;4998723;28;20304;-53
2023/12/04 07:47:02;;;;;;;19.90;9.40;;;14.10;63.10;;;;;;5001731;28;20112;-47
2023/12/04 07:49:28;;;;;;;19.05;9.40;;;14.00;63.00;;;;;;5000047;28;20042;-47
2023/12/04 07:51:53;;;;;;;19.42;9.27;;;14.10;63.00;;;;;;5004828;28;20428;-52
2023/12/04 07:54:19;;;;;;;16.45;8.95;;;14.10;63.00;;;;;;5001477;28;20117;-56
2023/12/04 07:56:44;;;;;;;15.88;9.10;;;14.10;63.00;;;;;;5005071;28;20033;-54
2023/12/04 07:59:10;;;;;;;19.85;9.05;;;14.00;62.90;;;;;;5004387;28;20069;-47
2023/12/04 08:01:35;;;;;;;22.58;9.30;;;14.10;62.90;;;;;;5000002;28;20069;-53
2023/12/04 08:04:01;;;;;;;22.40;10.90;;;14.10;62.80;;;;;;5003512;28;20041;-53
2023/12/04 08:06:26;;;;;;;19.55;9.70;;;14.10;62.90;;;;;;5001517;28;20038;-52
2023/12/04 08:08:52;;;;;;;31.40;10.80;;;14.10;62.90;;;;;;5002887;28;20037;-48
2023/12/04 08:11:18;;;;;;;22.60;10.13;;;14.10;62.90;;;;;;5001706;28;20040;-47
2023/12/04 08:13:43;;;;;;;24.67;11.23;;;14.10;63.00;;;;;;5002800;28;20459;-54
2023/12/04 08:16:19;;;;;;;21.55;10.95;;;14.00;62.90;;;;;;5008126;28;20037;-46
2023/12/04 08:18:45;;;;;;;25.33;9.98;;;14.10;63.00;;;;;;5002077;28;20112;-48
2023/12/04 08:21:11;;;;;;;30.42;13.50;;;14.10;63.00;;;;;;5004546;28;20038;-46
2023/12/04 08:23:37;;;;;;;20.48;11.07;;;14.10;62.90;;;;;;4943331;28;20033;-46
2023/12/04 08:26:03;;;;;;;25.88;10.88;;;14.00;62.90;;;;;;5002132;28;20447;-48
2023/12/04 08:28:28;;;;;;;24.35;11.10;;;14.10;63.00;;;;;;5007729;28;20494;-50
2023/12/04 08:30:54;;;;;;;25.27;11.25;;;14.10;63.00;;;;;;5002864;28;20069;-57
2023/12/04 08:33:20;;;;;;;22.92;10.75;;;14.10;63.00;;;;;;5006312;28;20526;-51
2023/12/04 08:35:45;;;;;;;26.10;11.27;;;14.00;62.90;;;;;;5003282;28;20115;-47
2023/12/04 08:38:11;;;;;;;19.67;10.63;;;14.00;62.90;;;;;;5003046;28;20037;-51
2023/12/04 08:40:36;;;;;;;21.23;9.95;;;14.00;62.80;;;;;;5003663;28;20034;-50
2023/12/04 08:43:03;;;;;;;21.05;10.43;;;14.00;62.80;;;;;;5004312;28;20446;-56
2023/12/04 08:45:29;;;;;;;20.67;10.20;;;14.00;62.90;;;;;;5002280;28;20084;-47
2023/12/04 08:47:55;;;;;;;19.48;10.88;;;14.00;62.90;;;;;;5004426;28;20038;-49
2023/12/04 08:50:20;;;;;;;22.67;10.70;;;14.00;62.80;;;;;;5002440;28;20084;-54
2023/12/04 08:52:46;;;;;;;24.13;11.35;;;14.00;62.80;;;;;;5006622;28;20037;-47
2023/12/04 08:55:12;;;;;;;21.73;10.52;;;14.00;62.80;;;;;;5001504;28;20038;-47
2023/12/04 08:57:37;;;;;;;17.75;10.10;;;14.00;62.70;;;;;;4995595;28;20394;-50
2023/12/04 09:00:04;;;;;;;22.75;10.45;;;14.00;62.70;;;;;;5002249;28;20038;-53
2023/12/04 09:02:30;;;;;;;23.85;10.45;;;14.10;62.80;;;;;;5004986;28;20100;-48
2023/12/04 09:04:56;;;;;;;18.35;9.48;;;14.10;62.80;;;;;;5003296;28;20038;-49
2023/12/04 09:07:21;;;;;;;20.80;10.55;;;14.00;62.80;;;;;;4976170;28;20056;-52
2023/12/04 09:09:47;;;;;;;22.50;9.90;;;14.10;63.40;;;;;;5003628;28;20038;-51
2023/12/04 09:12:13;;;;;;;18.77;8.65;;;14.00;62.70;;;;;;5001598;28;20042;-51
2023/12/04 09:14:38;;;;;;;21.17;10.10;;;14.00;62.70;;;;;;5004235;28;20044;-47
2023/12/04 09:17:04;;;;;;;15.48;9.10;;;14.00;62.60;;;;;;5003823;28;20050;-49
2023/12/04 09:19:30;;;;;;;19.48;9.77;;;14.00;62.60;;;;;;5001958;28;20092;-49
2023/12/04 09:21:56;;;;;;;20.67;8.80;;;14.10;62.70;;;;;;5002245;28;20447;-51
2023/12/04 09:24:23;;;;;;;16.60;9.07;;;14.00;62.60;;;;;;4999979;28;20479;-55
2023/12/04 09:26:49;;;;;;;16.38;8.85;;;14.10;62.60;;;;;;5001186;28;20036;-48
2023/12/04 09:29:15;;;;;;;15.68;8.32;;;14.10;62.70;;;;;;5001292;28;20109;-51
2023/12/04 09:31:41;;;;;;;16.85;8.50;;;14.10;62.60;;;;;;5002357;28;20030;-46
2023/12/04 09:34:06;;;;;;;18.70;9.38;;;14.10;62.60;;;;;;5001151;28;20026;-49
2023/12/04 09:36:34;;;;;;;16.88;9.13;;;14.10;62.50;;;;;;5002552;28;20116;-47
2023/12/04 09:38:59;;;;;;;17.95;8.48;;;14.10;62.40;;;;;;4984317;28;20324;-55
2023/12/04 09:41:25;;;;;;;14.00;7.78;;;14.10;62.50;;;;;;4985438;28;20683;-47
2023/12/04 09:43:51;;;;;;;17.90;8.45;;;14.10;62.50;;;;;;4989298;28;20062;-47
2023/12/04 09:46:17;;;;;;;14.90;8.32;;;14.10;62.40;;;;;;4982763;28;20030;-47
2023/12/04 09:48:43;;;;;;;15.05;7.78;;;14.10;62.50;;;;;;4998204;28;20036;-47
2023/12/04 09:51:10;;;;;;;14.27;7.55;;;14.10;63.30;;;;;;5001497;28;20499;-48
2023/12/04 09:53:36;;;;;;;13.20;7.93;;;14.10;62.70;;;;;;5003436;28;20238;-47
2023/12/04 09:56:07;;;;;;;13.63;7.70;;;14.20;62.80;;;;;;5002212;28;20042;-55
2023/12/04 09:58:34;;;;;;;12.85;7.28;;;14.20;62.80;;;;;;4983074;28;20045;-49
2023/12/04 10:01:03;;;;;;;14.70;6.88;;;14.20;62.70;;;;;;4983099;28;20026;-49
2023/12/04 10:03:29;;;;;;;11.32;6.72;;;14.20;62.60;;;;;;4982224;28;20065;-51
2023/12/04 10:05:55;;;;;;;13.45;7.72;;;14.20;62.60;;;;;;4985931;28;20058;-51
2023/12/04 10:08:21;;;;;;;17.08;6.72;;;14.20;62.50;;;;;;4983579;28;20121;-52
2023/12/04 10:10:47;;;;;;;13.43;7.05;;;14.10;62.50;;;;;;4992163;28;20073;-51
2023/12/04 10:13:12;;;;;;;11.88;6.95;;;14.10;62.70;;;;;;4982507;28;20030;-58
2023/12/04 10:15:51;;;;;;;13.43;7.05;;;14.10;62.70;;;;;;4984061;28;20092;-50
2023/12/04 10:18:31;;;;;;;15.25;7.10;;;14.10;62.70;;;;;;4989292;28;20044;-54
2023/12/04 10:20:58;;;;;;;12.52;6.38;;;14.10;62.50;;;;;;4985745;28;20606;-52
2023/12/04 10:23:40;;;;;;;12.43;6.18;;;14.10;62.70;;;;;;4982103;28;20022;-48
2023/12/04 10:26:07;;;;;;;12.15;7.30;;;14.10;62.70;;;;;;4987866;28;20030;-53
2023/12/04 10:28:33;;;;;;;11.68;5.82;;;14.10;62.70;;;;;;4982975;28;20149;-58
2023/12/04 10:30:59;;;;;;;11.98;5.75;;;14.10;62.70;;;;;;4989327;28;20053;-53
2023/12/04 10:33:28;;;;;;;10.40;5.82;;;14.10;62.70;;;;;;4982640;28;20736;-52
2023/12/04 10:35:53;;;;;;;11.38;6.25;;;14.10;62.70;;;;;;4982677;28;20038;-57
2023/12/04 10:38:19;;;;;;;12.65;5.75;;;14.10;62.70;;;;;;4982302;28;20085;-51
2023/12/04 10:40:44;;;;;;;13.98;6.57;;;14.10;62.70;;;;;;4988647;28;20109;-52
2023/12/04 10:43:24;;;;;;;8.85;5.38;;;14.10;62.70;;;;;;4982436;28;20050;-48
2023/12/04 10:45:51;;;;;;;9.30;5.53;;;14.10;62.70;;;;;;4983478;28;20054;-57
2023/12/04 10:48:18;;;;;;;9.63;5.28;;;14.10;62.60;;;;;;4986540;28;20034;-49
2023/12/04 10:50:48;;;;;;;8.75;5.32;;;14.10;62.60;;;;;;4990721;28;20706;-52
2023/12/04 10:53:16;;;;;;;9.40;5.72;;;14.10;62.60;;;;;;4983624;28;20105;-56
2023/12/04 10:55:44;;;;;;;9.07;4.68;;;14.10;62.60;;;;;;4983712;28;20065;-50
2023/12/04 10:58:14;;;;;;;8.80;4.45;;;14.10;62.60;;;;;;4982615;28;20037;-55
2023/12/04 11:00:44;;;;;;;10.85;5.00;;;14.10;62.70;;;;;;4979559;28;20053;-52
2023/12/04 11:03:15;;;;;;;9.07;4.95;;;14.10;62.60;;;;;;4982435;28;20298;-58
2023/12/04 11:05:40;;;;;;;9.57;4.60;;;14.10;62.70;;;;;;4982060;28;20034;-53
2023/12/04 11:08:14;;;;;;;7.43;4.60;;;14.10;63.30;;;;;;4981737;28;20093;-58
2023/12/04 11:10:54;;;;;;;8.52;4.68;;;14.10;62.70;;;;;;4977626;28;20080;-52
2023/12/04 11:13:28;;;;;;;9.23;5.20;;;14.10;62.50;;;;;;4979250;28;20440;-53
2023/12/04 11:16:02;;;;;;;6.13;4.37;;;14.00;62.60;;;;;;4979885;28;20062;-53
2023/12/04 11:18:31;;;;;;;5.88;4.07;;;14.10;62.60;;;;;;4978588;28;20038;-53
2023/12/04 11:20:59;;;;;;;7.82;5.10;;;14.10;62.50;;;;;;4980638;28;20645;-56
2023/12/04 11:23:25;;;;;;;7.97;4.28;;;14.00;62.50;;;;;;4978969;28;20053;-52
2023/12/04 11:25:52;;;;;;;12.50;5.05;;;14.10;62.50;;;;;;4978933;28;20026;-53
2023/12/04 11:28:19;;;;;;;7.75;4.50;;;14.10;62.50;;;;;;4979621;28;20041;-50
2023/12/04 11:30:45;;;;;;;6.60;3.90;;;14.10;62.50;;;;;;4980730;28;20037;-53
2023/12/04 11:33:11;;;;;;;5.60;3.80;;;14.10;62.50;;;;;;4980221;28;20537;-50
2023/12/04 11:35:39;;;;;;;6.05;4.05;;;14.10;62.50;;;;;;5011066;23;20258;-63
2023/12/04 11:38:07;;;;;;;6.47;3.70;;;14.10;62.50;;;;;;5045152;28;20100;-63
2023/12/04 11:40:32;;;;;;;6.32;3.97;;;14.10;62.50;;;;;;5046631;28;20094;-64
2023/12/04 11:42:58;;;;;;;7.43;4.28;;;14.10;62.60;;;;;;5042544;28;20116;-63
2023/12/04 11:45:24;;;;;;;6.20;3.92;;;14.10;62.70;;;;;;5036079;28;20025;-63
2023/12/04 11:47:57;;;;;;;6.95;4.22;;;14.10;62.50;;;;;;5032816;28;20037;-63
2023/12/04 11:50:25;;;;;;;6.90;3.90;;;14.00;62.50;;;;;;5041856;28;20028;-64
2023/12/04 11:52:50;;;;;;;8.00;3.60;;;14.00;62.50;;;;;;5036397;28;20060;-65
2023/12/04 11:55:22;;;;;;;5.63;3.85;;;14.00;62.50;;;;;;5025043;28;20069;-65
2023/12/04 11:57:50;;;;;;;5.38;3.22;;;14.00;62.50;;;;;;5044515;28;20075;-63
2023/12/04 12:00:21;;;;;;;6.13;3.85;;;14.00;62.40;;;;;;5046223;28;20033;-64
2023/12/04 12:02:53;;;;;;;6.90;3.55;;;14.00;62.50;;;;;;5042296;28;20037;-65
2023/12/04 12:05:23;;;;;;;5.85;3.58;;;14.00;62.40;;;;;;5046789;28;20028;-63
2023/12/04 12:07:49;;;;;;;9.63;3.92;;;14.00;62.40;;;;;;5040497;28;20535;-64
2023/12/04 12:10:16;;;;;;;4.13;2.95;;;14.00;62.50;;;;;;5041698;28;20037;-63
2023/12/04 12:12:43;;;;;;;7.85;3.70;;;14.00;62.40;;;;;;5040034;28;20388;-64
2023/12/04 12:15:10;;;;;;;4.25;3.20;;;14.00;62.40;;;;;;5042015;28;20099;-63
2023/12/04 12:17:39;;;;;;;5.85;3.05;;;14.00;62.50;;;;;;5041059;28;20569;-61
2023/12/04 12:20:06;;;;;;;4.65;3.50;;;14.00;62.50;;;;;;5042728;28;20040;-63
2023/12/04 12:22:34;;;;;;;7.72;3.58;;;14.00;62.50;;;;;;5021869;28;20127;-64
2023/12/04 12:25:00;;;;;;;7.25;3.63;;;13.90;62.50;;;;;;5021781;28;20411;-65
2023/12/04 12:27:25;;;;;;;5.95;3.72;;;13.90;62.50;;;;;;5019308;28;20053;-63
2023/12/04 12:29:51;;;;;;;5.72;3.22;;;13.90;62.60;;;;;;5015303;28;20500;-64
2023/12/04 12:32:17;;;;;;;6.97;4.10;;;13.90;62.60;;;;;;5018576;28;20124;-65
2023/12/04 12:34:42;;;;;;;8.77;4.47;;;13.90;62.80;;;;;;5020798;28;20045;-66
2023/12/04 12:37:08;;;;;;;41.45;15.65;;;14.00;62.90;;;;;;5019986;28;20520;-68
2023/12/04 12:39:35;;;;;;;32.10;12.75;;;14.70;65.60;;;;;;5015271;28;20148;-66